Columbus, Texas
Current Conditions -  °F | °C
As of 10:55 PM on Thursday 20 Nov 2014 (Local Time) from K66R Reporting Station
Overcast Overcast  
Wind Chill: 62°   Ceiling: 1400
Heat Index: 62°   Visibility: 10mi
Dew Point: 61°   Wind: 6mph
Humidity: 97%   Direction: 140°SE
Pressure: 30.08"   Gusts: NA
Location:  29.71°N, 96.54°W
Report Text: K66R 210455Z AUTO 14005KT 10SM SCT007 BKN014 OVC020 17/16 A3008 RMK AO2 T01650160
Loading
Personal Weather Stations






























Interactive Weather Map New forecast layout! Learn more

10-Day Weather Forecast

Advertisements
Track Severe Weather on mobile